Time;durP1;ratioP1;P1;durP2;ratioP2;P2;SDS_P1;SDS_P2;PMS_P1;PMS_P2;Temp;Humidity;BMP_temperature;BMP_pressure;BME280_temperature;BME280_humidity;BME280_pressure;Samples;Min_cycle;Max_cycle;Signal;HPM_P1;HPM_P2
2021/12/01 00:02:02;;;;;;;86.00;36.53;;;;;;;;;;5012973;28;20065;-83
2021/12/01 00:04:28;;;;;;;82.78;37.05;;;;;;;;;;5033106;28;20064;-85
2021/12/01 00:06:53;;;;;;;59.95;27.77;;;;;;;;;;5031280;28;20472;-85
2021/12/01 00:09:27;;;;;;;65.93;28.25;;;;;;;;;;5031931;28;20368;-85
2021/12/01 00:12:01;;;;;;;182.70;61.55;;;;;;;;;;5031519;28;20040;-84
2021/12/01 00:14:27;;;;;;;98.88;39.63;;;;;;;;;;5030418;28;20041;-84
2021/12/01 00:16:56;;;;;;;102.50;38.72;;;;;;;;;;5031976;28;20029;-83
2021/12/01 00:19:24;;;;;;;119.57;46.85;;;;;;;;;;5033094;28;20029;-83
2021/12/01 00:21:52;;;;;;;131.05;52.10;;;;;;;;;;5036091;28;20022;-84
2021/12/01 00:24:18;;;;;;;132.73;51.10;;;;;;;;;;5035736;28;20578;-83
2021/12/01 00:26:47;;;;;;;124.57;47.75;;;;;;;;;;5035581;28;20525;-84
2021/12/01 00:29:13;;;;;;;108.50;46.95;;;;;;;;;;5033977;28;20044;-83
2021/12/01 00:31:43;;;;;;;117.80;46.60;;;;;;;;;;5035743;28;20033;-84
2021/12/01 00:34:21;;;;;;;120.88;49.15;;;;;;;;;;5035091;28;20414;-84
2021/12/01 00:36:51;;;;;;;218.68;96.00;;;;;;;;;;5035327;28;20034;-83
2021/12/01 00:39:17;;;;;;;206.55;94.43;;;;;;;;;;5037127;28;20036;-84
2021/12/01 00:41:56;;;;;;;142.38;58.92;;;;;;;;;;5036881;28;20380;-85
2021/12/01 00:44:44;;;;;;;112.43;46.88;;;;;;;;;;5036203;28;20029;-85
2021/12/01 00:47:47;;;;;;;104.03;42.53;;;;;;;;;;5031618;28;20115;-84
2021/12/01 00:50:36;;;;;;;125.97;47.22;;;;;;;;;;5017906;28;20453;-83
2021/12/01 00:53:32;;;;;;;;;;;;;;;;;;;;;
2021/12/01 00:56:29;;;;;;;107.05;44.63;;;;;;;;;;5024957;28;20041;-84
2021/12/01 00:59:17;;;;;;;92.93;39.25;;;;;;;;;;5031288;28;20030;-83
2021/12/01 01:02:17;;;;;;;119.50;44.90;;;;;;;;;;5043278;28;20110;-83
2021/12/01 01:05:08;;;;;;;100.30;39.22;;;;;;;;;;5015459;28;20088;-83
2021/12/01 01:07:40;;;;;;;;;;;;;;;;;;5015853;28;20490;-83
2021/12/01 01:16:24;;;;;;;75.63;34.03;;;;;;;;;;5056328;28;20033;-82
2021/12/01 01:22:06;;;;;;;82.07;35.42;;;;;;;;;;5056974;28;20036;-83
2021/12/01 01:24:40;;;;;;;88.22;41.92;;;;;;;;;;5055171;28;20521;-83
2021/12/01 01:27:24;;;;;;;103.03;42.45;;;;;;;;;;5056463;28;20044;-83
2021/12/01 01:29:52;;;;;;;91.82;40.67;;;;;;;;;;5054942;28;20048;-82
2021/12/01 01:32:23;;;;;;;114.90;47.33;;;;;;;;;;5055087;28;20032;-82
2021/12/01 01:35:03;;;;;;;120.47;48.65;;;;;;;;;;5055495;28;20029;-83
2021/12/01 01:37:49;;;;;;;107.35;45.03;;;;;;;;;;5040201;28;20037;-84
2021/12/01 01:44:30;;;;;;;112.82;45.70;;;;;;;;;;5012968;28;20462;-83
2021/12/01 01:47:58;;;;;;;104.43;42.58;;;;;;;;;;4959181;28;20046;-83
2021/12/01 01:50:47;;;;;;;102.72;42.22;;;;;;;;;;4974031;28;20045;-83
2021/12/01 01:53:25;;;;;;;102.13;40.90;;;;;;;;;;5014501;28;20050;-83
2021/12/01 01:56:52;;;;;;;;;;;;;;;;;;;;;
2021/12/01 02:00:14;;;;;;;;;;;;;;;;;;;;;
2021/12/01 02:10:30;;;;;;;;;;;;;;;;;;;;;
2021/12/01 02:13:50;;;;;;;;;;;;;;;;;;;;;
2021/12/01 02:20:10;;;;;;;113.20;50.58;;;;;;;;;;5015838;28;20048;-84
2021/12/01 02:22:36;;;;;;;;;;;;;;;;;;5036319;28;20044;-84
2021/12/01 02:25:02;;;;;;;125.22;48.42;;;;;;;;;;5017557;28;20260;-86
2021/12/01 02:27:28;;;;;;;124.75;50.45;;;;;;;;;;5035149;28;20116;-84
2021/12/01 02:29:56;;;;;;;101.72;44.65;;;;;;;;;;5034702;28;20487;-85
2021/12/01 02:32:27;;;;;;;116.75;48.80;;;;;;;;;;5037364;28;20119;-85
2021/12/01 02:34:55;;;;;;;89.85;39.63;;;;;;;;;;5036989;28;20120;-85
2021/12/01 02:37:23;;;;;;;102.63;41.60;;;;;;;;;;5035977;28;20079;-85
2021/12/01 02:39:52;;;;;;;105.63;45.08;;;;;;;;;;5035118;28;20125;-84
2021/12/01 02:42:20;;;;;;;104.05;45.47;;;;;;;;;;5035250;28;20100;-85
2021/12/01 02:44:51;;;;;;;106.78;46.20;;;;;;;;;;5035155;28;20337;-84
2021/12/01 02:47:17;;;;;;;99.80;41.75;;;;;;;;;;5034740;28;20483;-85
2021/12/01 02:49:42;;;;;;;96.82;42.25;;;;;;;;;;5034707;28;20054;-85
2021/12/01 02:52:16;;;;;;;97.95;43.00;;;;;;;;;;5034826;28;20037;-85
2021/12/01 02:54:46;;;;;;;103.57;43.38;;;;;;;;;;5034289;28;20033;-86
2021/12/01 02:57:24;;;;;;;109.63;46.47;;;;;;;;;;5035055;28;20022;-85
2021/12/01 02:59:51;;;;;;;120.10;51.08;;;;;;;;;;5034666;28;20029;-85
2021/12/01 03:02:17;;;;;;;110.35;48.00;;;;;;;;;;5039050;28;20094;-86
2021/12/01 03:04:49;;;;;;;118.90;48.72;;;;;;;;;;5055094;28;20108;-86
2021/12/01 03:07:20;;;;;;;;;;;;;;;;;;5054929;28;20034;-85
2021/12/01 03:09:49;;;;;;;84.03;35.47;;;;;;;;;;5020695;28;19913;-86
2021/12/01 03:12:18;;;;;;;92.72;40.70;;;;;;;;;;5030530;28;20025;-85
2021/12/01 03:14:48;;;;;;;131.98;62.00;;;;;;;;;;5033050;28;20037;-87
2021/12/01 03:17:17;;;;;;;135.82;60.90;;;;;;;;;;5032704;28;20029;-84
2021/12/01 03:19:42;;;;;;;110.85;47.97;;;;;;;;;;5034502;28;20021;-86
2021/12/01 03:22:14;;;;;;;98.78;42.83;;;;;;;;;;5017376;28;20037;-85
2021/12/01 03:24:42;;;;;;;93.43;41.83;;;;;;;;;;5033564;28;20040;-86
2021/12/01 03:27:10;;;;;;;90.25;39.53;;;;;;;;;;5034608;28;20025;-86
2021/12/01 03:29:38;;;;;;;105.32;43.17;;;;;;;;;;5034135;28;20077;-85
2021/12/01 03:32:06;;;;;;;95.43;43.42;;;;;;;;;;5033661;28;20045;-86
2021/12/01 03:34:34;;;;;;;71.70;34.05;;;;;;;;;;5034572;28;20044;-84
2021/12/01 03:37:00;;;;;;;81.22;37.25;;;;;;;;;;5033854;28;20022;-87
2021/12/01 03:39:29;;;;;;;78.22;36.88;;;;;;;;;;5034369;28;20029;-86
2021/12/01 03:41:57;;;;;;;94.22;40.70;;;;;;;;;;5034770;28;20437;-84
2021/12/01 03:44:23;;;;;;;101.90;43.05;;;;;;;;;;5016798;28;20040;-84
2021/12/01 03:46:49;;;;;;;78.60;34.08;;;;;;;;;;5034531;28;20117;-86
2021/12/01 03:49:21;;;;;;;80.57;35.58;;;;;;;;;;5016778;28;20371;-85
2021/12/01 03:51:49;;;;;;;86.68;36.70;;;;;;;;;;5033786;28;20053;-84
2021/12/01 03:54:15;;;;;;;65.43;27.75;;;;;;;;;;5034222;28;20061;-84
2021/12/01 03:56:41;;;;;;;44.25;21.75;;;;;;;;;;5034085;28;20051;-84
2021/12/01 03:59:06;;;;;;;49.33;25.83;;;;;;;;;;5033293;28;20038;-84
2021/12/01 04:01:33;;;;;;;51.75;26.73;;;;;;;;;;5031539;28;20022;-85
2021/12/01 04:03:58;;;;;;;50.75;25.00;;;;;;;;;;5031710;28;20527;-83
2021/12/01 04:06:26;;;;;;;54.58;25.88;;;;;;;;;;5032664;28;20123;-84
2021/12/01 04:08:52;;;;;;;53.75;29.05;;;;;;;;;;5033379;28;20160;-86
2021/12/01 04:11:18;;;;;;;51.67;26.77;;;;;;;;;;5038833;28;20108;-84
2021/12/01 04:13:44;;;;;;;53.72;27.48;;;;;;;;;;5034020;28;20069;-83
2021/12/01 04:16:09;;;;;;;52.28;26.77;;;;;;;;;;5032766;28;20061;-84
2021/12/01 04:18:35;;;;;;;51.08;25.33;;;;;;;;;;5033366;28;20038;-84
2021/12/01 04:21:01;;;;;;;52.90;25.80;;;;;;;;;;5032655;28;20026;-83
2021/12/01 04:23:26;;;;;;;56.50;26.63;;;;;;;;;;5034714;28;20112;-85
2021/12/01 04:25:52;;;;;;;48.53;26.15;;;;;;;;;;5052637;28;20033;-85
2021/12/01 04:28:18;;;;;;;49.67;25.95;;;;;;;;;;5053170;28;20025;-85
2021/12/01 04:30:44;;;;;;;51.72;26.55;;;;;;;;;;5053276;28;20033;-86
2021/12/01 04:33:10;;;;;;;55.83;26.58;;;;;;;;;;5053390;28;20063;-85
2021/12/01 04:35:36;;;;;;;48.08;24.63;;;;;;;;;;5035668;28;20044;-85
2021/12/01 04:38:06;;;;;;;41.47;22.75;;;;;;;;;;5054030;28;20087;-84
2021/12/01 04:40:33;;;;;;;44.22;24.23;;;;;;;;;;5056180;28;20033;-83
2021/12/01 04:42:59;;;;;;;50.97;25.50;;;;;;;;;;5057916;28;20025;-85
2021/12/01 04:45:25;;;;;;;60.00;24.05;;;;;;;;;;5057678;28;20037;-88
2021/12/01 04:47:54;;;;;;;54.67;25.02;;;;;;;;;;5057239;28;20029;-85
2021/12/01 04:50:22;;;;;;;57.78;29.50;;;;;;;;;;5037029;28;20041;-85
2021/12/01 04:52:49;;;;;;;66.93;32.80;;;;;;;;;;5034528;28;20079;-86
2021/12/01 04:55:20;;;;;;;74.68;33.08;;;;;;;;;;5033938;28;20030;-87
2021/12/01 04:58:04;;;;;;;74.75;34.30;;;;;;;;;;5033883;28;20033;-86
2021/12/01 05:00:59;;;;;;;70.30;32.65;;;;;;;;;;5032895;28;20033;-84
2021/12/01 05:03:30;;;;;;;56.67;29.35;;;;;;;;;;5033432;28;20052;-85
2021/12/01 05:06:00;;;;;;;58.78;28.63;;;;;;;;;;5034551;28;20088;-85
2021/12/01 05:08:26;;;;;;;57.67;27.60;;;;;;;;;;5036590;28;20175;-84
2021/12/01 05:10:57;;;;;;;57.75;29.60;;;;;;;;;;5036961;28;20545;-85
2021/12/01 05:13:31;;;;;;;53.45;27.10;;;;;;;;;;5036494;28;20092;-86
2021/12/01 05:16:09;;;;;;;58.90;28.17;;;;;;;;;;5033871;28;20168;-86
2021/12/01 05:18:38;;;;;;;88.97;38.42;;;;;;;;;;5039496;28;20383;-84
2021/12/01 05:21:12;;;;;;;90.93;37.70;;;;;;;;;;5016642;28;20124;-84
2021/12/01 05:23:50;;;;;;;84.43;35.78;;;;;;;;;;5021005;28;20049;-87
2021/12/01 05:26:21;;;;;;;90.78;38.33;;;;;;;;;;5021801;28;20116;-86
2021/12/01 05:28:47;;;;;;;104.85;42.10;;;;;;;;;;5017127;28;20029;-85
2021/12/01 05:31:15;;;;;;;123.90;48.60;;;;;;;;;;5016870;28;20058;-86
2021/12/01 05:33:44;;;;;;;121.15;43.13;;;;;;;;;;5020682;28;20033;-86
2021/12/01 05:36:13;;;;;;;89.38;36.88;;;;;;;;;;5032322;28;20044;-84
2021/12/01 05:38:52;;;;;;;96.47;36.15;;;;;;;;;;5034953;28;20017;-85
2021/12/01 05:41:21;;;;;;;88.63;34.30;;;;;;;;;;5036662;28;20033;-87
2021/12/01 05:43:47;;;;;;;96.88;32.85;;;;;;;;;;5019957;28;20407;-84
2021/12/01 05:46:13;;;;;;;80.82;32.13;;;;;;;;;;5002722;28;20045;-85
2021/12/01 05:48:38;;;;;;;76.75;28.25;;;;;;;;;;5042233;28;20030;-85
2021/12/01 05:51:04;;;;;;;66.15;27.20;;;;;;;;;;5038498;28;20368;-86
2021/12/01 05:53:30;;;;;;;76.30;28.88;;;;;;;;;;5040484;28;20365;-85
2021/12/01 05:55:56;;;;;;;76.60;28.00;;;;;;;;;;5036902;28;20037;-85
2021/12/01 05:58:21;;;;;;;116.88;39.90;;;;;;;;;;5036086;28;20371;-86
2021/12/01 06:00:50;;;;;;;117.10;46.00;;;;;;;;;;5041034;28;20034;-85
2021/12/01 06:03:16;;;;;;;118.53;46.97;;;;;;;;;;5001845;28;20041;-87
2021/12/01 06:05:43;;;;;;;160.25;61.15;;;;;;;;;;5018153;28;20068;-84
2021/12/01 06:08:09;;;;;;;133.45;54.28;;;;;;;;;;5022120;28;20068;-87
2021/12/01 06:10:35;;;;;;;134.63;55.38;;;;;;;;;;5036444;28;20029;-83
2021/12/01 06:13:01;;;;;;;172.10;68.70;;;;;;;;;;5035120;28;20403;-83
2021/12/01 06:15:29;;;;;;;182.25;81.43;;;;;;;;;;5035619;28;20028;-83
2021/12/01 06:17:57;;;;;;;149.02;64.43;;;;;;;;;;5034556;28;20072;-83
2021/12/01 06:20:23;;;;;;;150.88;65.55;;;;;;;;;;5036124;28;20025;-84
2021/12/01 06:22:50;;;;;;;156.60;65.75;;;;;;;;;;5035614;28;20419;-84
2021/12/01 06:25:15;;;;;;;182.75;75.50;;;;;;;;;;5035044;28;20033;-84
2021/12/01 06:27:42;;;;;;;199.95;82.63;;;;;;;;;;5035259;28;20055;-84
2021/12/01 06:30:08;;;;;;;209.18;98.53;;;;;;;;;;5036059;28;20033;-84
2021/12/01 06:32:35;;;;;;;217.32;97.18;;;;;;;;;;5035197;28;20036;-83
2021/12/01 06:35:01;;;;;;;207.55;92.60;;;;;;;;;;5035368;28;20032;-84
2021/12/01 06:37:26;;;;;;;167.52;75.13;;;;;;;;;;5035979;28;20030;-85
2021/12/01 06:39:52;;;;;;;193.32;85.15;;;;;;;;;;5035105;28;20045;-85
2021/12/01 06:42:18;;;;;;;186.32;87.13;;;;;;;;;;5017905;28;20098;-84
2021/12/01 06:44:44;;;;;;;217.52;91.63;;;;;;;;;;5035814;28;20092;-84
2021/12/01 06:47:10;;;;;;;212.65;93.03;;;;;;;;;;5034991;28;20045;-84
2021/12/01 06:49:35;;;;;;;202.30;93.63;;;;;;;;;;5035844;28;20033;-85
2021/12/01 06:52:01;;;;;;;211.25;91.07;;;;;;;;;;5035085;28;20033;-85
2021/12/01 06:54:27;;;;;;;198.98;88.03;;;;;;;;;;5035559;28;20045;-85
2021/12/01 06:56:52;;;;;;;208.13;94.75;;;;;;;;;;5035218;28;20112;-85
2021/12/01 06:59:18;;;;;;;201.93;91.45;;;;;;;;;;5034577;28;20045;-84
2021/12/01 07:01:44;;;;;;;185.82;82.00;;;;;;;;;;5035258;28;20030;-84
2021/12/01 07:04:10;;;;;;;169.93;79.22;;;;;;;;;;5054768;28;20048;-84
2021/12/01 07:06:35;;;;;;;185.18;83.43;;;;;;;;;;5054765;28;20040;-85
2021/12/01 07:09:02;;;;;;;182.35;82.95;;;;;;;;;;5055255;28;20025;-85
2021/12/01 07:11:29;;;;;;;193.45;97.05;;;;;;;;;;5054494;28;20375;-86
2021/12/01 07:13:55;;;;;;;193.15;99.65;;;;;;;;;;5055164;28;20109;-86
2021/12/01 07:16:22;;;;;;;215.25;108.70;;;;;;;;;;5055018;28;20029;-86
2021/12/01 07:18:48;;;;;;;210.18;107.32;;;;;;;;;;5055787;28;20037;-84
2021/12/01 07:21:13;;;;;;;204.18;99.07;;;;;;;;;;5036833;28;20039;-85
2021/12/01 07:23:39;;;;;;;202.30;104.22;;;;;;;;;;5054612;28;20036;-85
2021/12/01 07:26:05;;;;;;;232.85;117.80;;;;;;;;;;5054808;28;20044;-85
2021/12/01 07:28:31;;;;;;;240.48;122.95;;;;;;;;;;5053035;28;20529;-85
2021/12/01 07:30:57;;;;;;;254.98;129.30;;;;;;;;;;5054835;28;20076;-85
2021/12/01 07:33:24;;;;;;;225.02;112.50;;;;;;;;;;5056323;28;20399;-85
2021/12/01 07:35:50;;;;;;;202.35;103.88;;;;;;;;;;5054095;28;20120;-84
2021/12/01 07:38:16;;;;;;;205.60;102.97;;;;;;;;;;5054294;28;20104;-84
2021/12/01 07:40:42;;;;;;;223.95;111.00;;;;;;;;;;5054721;28;20064;-83
2021/12/01 07:43:08;;;;;;;218.05;113.07;;;;;;;;;;5054753;28;20033;-85
2021/12/01 07:45:35;;;;;;;124.28;60.63;;;;;;;;;;5054376;28;20464;-84
2021/12/01 07:48:01;;;;;;;166.88;86.40;;;;;;;;;;5054860;28;20033;-84
2021/12/01 07:50:27;;;;;;;169.65;78.65;;;;;;;;;;5054941;28;20048;-84
2021/12/01 07:52:53;;;;;;;128.57;61.85;;;;;;;;;;5054036;28;20108;-84
2021/12/01 07:55:18;;;;;;;78.82;41.05;;;;;;;;;;5056501;28;20029;-85
2021/12/01 07:57:46;;;;;;;68.25;33.10;;;;;;;;;;5041916;28;20120;-83
2021/12/01 08:00:13;;;;;;;59.45;30.58;;;;;;;;;;5037419;28;20384;-84
2021/12/01 08:02:39;;;;;;;72.03;36.72;;;;;;;;;;5040672;28;20452;-83
2021/12/01 08:05:06;;;;;;;76.95;36.58;;;;;;;;;;5036680;28;20099;-84
2021/12/01 08:07:35;;;;;;;70.68;34.63;;;;;;;;;;5033321;28;20029;-83
2021/12/01 08:10:02;;;;;;;36.75;21.88;;;;;;;;;;5034058;28;20123;-82
2021/12/01 08:12:27;;;;;;;43.40;23.55;;;;;;;;;;5033598;28;20032;-83
2021/12/01 08:14:53;;;;;;;41.13;21.25;;;;;;;;;;5033620;28;20045;-85
2021/12/01 08:17:19;;;;;;;38.40;18.88;;;;;;;;;;5033123;28;20046;-84
2021/12/01 08:19:44;;;;;;;30.90;15.40;;;;;;;;;;5033369;28;20037;-85
2021/12/01 08:22:10;;;;;;;27.20;14.13;;;;;;;;;;5033543;28;20516;-82
2021/12/01 08:24:36;;;;;;;18.70;9.90;;;;;;;;;;5033187;28;20483;-85
2021/12/01 08:27:02;;;;;;;24.65;11.43;;;;;;;;;;5033108;28;20522;-85
2021/12/01 08:29:28;;;;;;;29.52;13.50;;;;;;;;;;5032964;28;20075;-83
2021/12/01 08:31:54;;;;;;;31.63;16.77;;;;;;;;;;5032916;28;20037;-83
2021/12/01 08:34:19;;;;;;;24.15;12.15;;;;;;;;;;5034001;28;20037;-86
2021/12/01 08:36:46;;;;;;;51.67;23.27;;;;;;;;;;5033304;28;20033;-84
2021/12/01 08:39:13;;;;;;;13.23;8.40;;;;;;;;;;5033398;28;20025;-82
2021/12/01 08:41:39;;;;;;;15.98;7.38;;;;;;;;;;5035757;28;20044;-84
2021/12/01 08:44:05;;;;;;;14.73;8.25;;;;;;;;;;5037095;28;20375;-83
2021/12/01 08:46:31;;;;;;;23.38;11.02;;;;;;;;;;5037303;28;20025;-84
2021/12/01 08:48:58;;;;;;;22.13;7.82;;;;;;;;;;5037189;28;20414;-84
2021/12/01 08:51:25;;;;;;;16.33;8.60;;;;;;;;;;5038095;28;20038;-84
2021/12/01 08:53:50;;;;;;;16.75;7.40;;;;;;;;;;5021295;28;20414;-83
2021/12/01 08:56:16;;;;;;;12.85;6.68;;;;;;;;;;5037627;28;20029;-84
2021/12/01 08:58:42;;;;;;;10.70;5.88;;;;;;;;;;5037988;28;20109;-84
2021/12/01 09:01:08;;;;;;;9.95;4.57;;;;;;;;;;5038419;28;20033;-82
2021/12/01 09:03:34;;;;;;;10.32;5.38;;;;;;;;;;5037293;28;20045;-84
2021/12/01 09:05:59;;;;;;;11.73;5.75;;;;;;;;;;5036574;28;20040;-84
2021/12/01 09:08:26;;;;;;;9.93;5.45;;;;;;;;;;5036861;28;20040;-83
2021/12/01 09:10:56;;;;;;;12.85;6.97;;;;;;;;;;5019191;28;20033;-83
2021/12/01 09:13:23;;;;;;;12.88;6.47;;;;;;;;;;5036359;28;20112;-83
2021/12/01 09:15:52;;;;;;;15.18;7.30;;;;;;;;;;5036763;28;20053;-83
2021/12/01 09:18:19;;;;;;;10.27;6.10;;;;;;;;;;5036451;28;20476;-83
2021/12/01 09:20:45;;;;;;;10.20;6.30;;;;;;;;;;5035947;28;20462;-83
2021/12/01 09:23:11;;;;;;;14.82;7.25;;;;;;;;;;5036559;28;20029;-82
2021/12/01 09:25:37;;;;;;;18.55;10.43;;;;;;;;;;5036461;28;20033;-83
2021/12/01 09:28:03;;;;;;;30.63;16.77;;;;;;;;;;5036910;28;20140;-83
2021/12/01 09:30:28;;;;;;;31.15;14.02;;;;;;;;;;5036923;28;20044;-82
2021/12/01 09:32:54;;;;;;;17.73;8.13;;;;;;;;;;5036317;28;20116;-83
2021/12/01 09:35:20;;;;;;;14.88;7.95;;;;;;;;;;5036471;28;20085;-82
2021/12/01 09:37:46;;;;;;;16.60;7.80;;;;;;;;;;5036007;28;20033;-83
2021/12/01 09:40:17;;;;;;;22.40;12.45;;;;;;;;;;5035560;28;20444;-82
2021/12/01 09:42:52;;;;;;;13.98;7.53;;;;;;;;;;5035973;28;20464;-83
2021/12/01 09:45:21;;;;;;;17.50;8.65;;;;;;;;;;5036148;28;20037;-82
2021/12/01 09:47:49;;;;;;;11.43;6.50;;;;;;;;;;5018091;28;20022;-82
2021/12/01 09:50:15;;;;;;;14.10;7.55;;;;;;;;;;5040822;28;20034;-83
2021/12/01 09:52:41;;;;;;;12.90;7.63;;;;;;;;;;5024091;28;20030;-83
2021/12/01 09:55:08;;;;;;;9.68;5.95;;;;;;;;;;5043738;28;20069;-83
2021/12/01 09:57:34;;;;;;;12.10;7.07;;;;;;;;;;5043518;28;20022;-83
2021/12/01 10:00:00;;;;;;;10.43;5.45;;;;;;;;;;5042172;28;20128;-84
2021/12/01 10:02:26;;;;;;;9.38;5.13;;;;;;;;;;5025281;28;20037;-83
2021/12/01 10:04:52;;;;;;;8.40;5.55;;;;;;;;;;5043103;28;20065;-83
2021/12/01 10:07:24;;;;;;;7.90;4.40;;;;;;;;;;5042889;28;20029;-82
2021/12/01 10:09:53;;;;;;;10.68;5.40;;;;;;;;;;5041794;28;20377;-82
2021/12/01 10:12:19;;;;;;;9.30;4.97;;;;;;;;;;5035381;28;20100;-83
2021/12/01 10:14:47;;;;;;;9.10;4.00;;;;;;;;;;5035681;28;20036;-83
2021/12/01 10:17:15;;;;;;;16.52;7.45;;;;;;;;;;5035380;28;20249;-82
2021/12/01 10:19:41;;;;;;;12.45;5.13;;;;;;;;;;5035702;28;20060;-84
2021/12/01 10:22:11;;;;;;;9.55;4.80;;;;;;;;;;5035258;28;20516;-83
2021/12/01 10:24:40;;;;;;;9.15;5.00;;;;;;;;;;5035081;28;20025;-83
2021/12/01 10:27:11;;;;;;;10.07;4.93;;;;;;;;;;5035319;28;20365;-84
2021/12/01 10:29:55;;;;;;;7.90;5.15;;;;;;;;;;5034964;28;20445;-83
2021/12/01 10:32:21;;;;;;;17.83;6.73;;;;;;;;;;5035006;28;20143;-84
2021/12/01 10:34:56;;;;;;;13.27;7.07;;;;;;;;;;5035724;28;20057;-83
2021/12/01 10:37:29;;;;;;;10.77;6.60;;;;;;;;;;5035225;28;20535;-82
2021/12/01 10:40:10;;;;;;;13.95;6.25;;;;;;;;;;5035155;28;20037;-83
2021/12/01 10:42:55;;;;;;;17.20;7.65;;;;;;;;;;5035384;28;20033;-83
2021/12/01 10:45:33;;;;;;;9.80;5.40;;;;;;;;;;5035783;28;20044;-83
2021/12/01 10:48:00;;;;;;;8.32;4.57;;;;;;;;;;5035063;28;20034;-83
2021/12/01 10:50:30;;;;;;;9.52;5.10;;;;;;;;;;5034591;28;20025;-83
2021/12/01 10:53:11;;;;;;;7.57;4.30;;;;;;;;;;5033417;28;20482;-84
2021/12/01 10:56:04;;;;;;;9.93;5.30;;;;;;;;;;5033198;28;20044;-84
2021/12/01 10:58:40;;;;;;;11.88;5.60;;;;;;;;;;5034516;28;20041;-82
2021/12/01 11:01:19;;;;;;;11.60;6.70;;;;;;;;;;5034478;28;20030;-82
2021/12/01 11:03:45;;;;;;;12.85;6.70;;;;;;;;;;5034670;28;20073;-82
2021/12/01 11:06:22;;;;;;;11.40;7.10;;;;;;;;;;5034497;28;20444;-82
2021/12/01 11:08:55;;;;;;;10.05;4.65;;;;;;;;;;5034634;28;20029;-82
2021/12/01 11:11:22;;;;;;;11.90;6.18;;;;;;;;;;5033187;28;20034;-83
2021/12/01 11:13:48;;;;;;;16.80;9.27;;;;;;;;;;5034511;28;20025;-82
2021/12/01 11:16:17;;;;;;;11.57;6.72;;;;;;;;;;5034184;28;20044;-80
2021/12/01 11:18:52;;;;;;;14.10;9.60;;;;;;;;;;5034074;28;20108;-81
2021/12/01 11:21:19;;;;;;;11.60;6.18;;;;;;;;;;5034590;28;20112;-82
2021/12/01 11:23:50;;;;;;;17.00;7.43;;;;;;;;;;5034389;28;20026;-83
2021/12/01 11:26:20;;;;;;;9.98;6.47;;;;;;;;;;5033895;28;20041;-83
2021/12/01 11:28:51;;;;;;;11.57;5.97;;;;;;;;;;5034108;28;20041;-84
2021/12/01 11:31:25;;;;;;;11.18;5.80;;;;;;;;;;5034199;28;20189;-82
2021/12/01 11:33:55;;;;;;;17.03;10.17;;;;;;;;;;5033842;28;20072;-82
2021/12/01 11:36:29;;;;;;;12.00;6.78;;;;;;;;;;5034084;28;20729;-82
2021/12/01 11:39:03;;;;;;;8.68;5.40;;;;;;;;;;5016045;28;20029;-83
2021/12/01 11:41:29;;;;;;;12.05;5.28;;;;;;;;;;5034094;28;20376;-81
2021/12/01 11:44:17;;;;;;;7.05;4.22;;;;;;;;;;5034062;28;20025;-82
2021/12/01 11:46:42;;;;;;;7.03;3.72;;;;;;;;;;5033325;28;20053;-84
2021/12/01 11:49:11;;;;;;;7.30;3.92;;;;;;;;;;5033823;28;20075;-83
2021/12/01 11:51:46;;;;;;;6.45;4.00;;;;;;;;;;5033963;28;20039;-84
2021/12/01 11:54:20;;;;;;;11.55;6.90;;;;;;;;;;5033824;28;20037;-83
2021/12/01 11:56:52;;;;;;;7.13;4.57;;;;;;;;;;5033005;28;20334;-85
2021/12/01 11:59:21;;;;;;;9.07;5.20;;;;;;;;;;5033672;28;20456;-84
2021/12/01 12:01:59;;;;;;;8.32;4.63;;;;;;;;;;5031032;28;20376;-84
2021/12/01 12:04:27;;;;;;;6.88;4.38;;;;;;;;;;5034256;28;20033;-83
2021/12/01 12:07:00;;;;;;;11.95;5.43;;;;;;;;;;5033252;28;20037;-81
2021/12/01 12:09:26;;;;;;;6.85;3.40;;;;;;;;;;5034309;28;20034;-82
2021/12/01 12:12:09;;;;;;;15.30;6.35;;;;;;;;;;5032795;28;20057;-81
2021/12/01 12:14:45;;;;;;;8.02;4.82;;;;;;;;;;5033989;28;20468;-82
2021/12/01 12:17:15;;;;;;;9.30;5.22;;;;;;;;;;5037764;28;20030;-83
2021/12/01 12:20:02;;;;;;;12.20;5.28;;;;;;;;;;5037823;28;20057;-83
2021/12/01 12:22:51;;;;;;;6.95;4.20;;;;;;;;;;5036663;28;20038;-82
2021/12/01 12:25:37;;;;;;;8.50;5.00;;;;;;;;;;5036500;28;20047;-85
2021/12/01 12:28:18;;;;;;;8.98;5.05;;;;;;;;;;5037939;28;20142;-82
2021/12/01 12:30:44;;;;;;;12.15;7.70;;;;;;;;;;5038677;28;20033;-84
2021/12/01 12:33:49;;;;;;;8.55;4.80;;;;;;;;;;5038619;28;20029;-81
2021/12/01 12:36:14;;;;;;;14.45;8.57;;;;;;;;;;4958636;29;20031;-82
2021/12/01 12:39:07;;;;;;;12.43;7.13;;;;;;;;;;5022794;28;20036;-85
2021/12/01 12:42:01;;;;;;;7.55;4.13;;;;;;;;;;5037029;28;20371;-82
2021/12/01 12:44:31;;;;;;;17.40;7.97;;;;;;;;;;5036894;28;20025;-83
2021/12/01 12:47:22;;;;;;;11.77;5.60;;;;;;;;;;5037093;28;20042;-82
2021/12/01 12:50:16;;;;;;;17.95;8.95;;;;;;;;;;5037165;28;20047;-83
2021/12/01 12:52:52;;;;;;;19.38;8.15;;;;;;;;;;5019710;28;20045;-84
2021/12/01 12:55:21;;;;;;;16.63;7.53;;;;;;;;;;5035781;28;20419;-82
2021/12/01 12:58:04;;;;;;;17.90;9.02;;;;;;;;;;5036119;28;20112;-82
2021/12/01 13:00:32;;;;;;;5.10;3.53;;;;;;;;;;5038057;28;20376;-81
2021/12/01 13:03:23;;;;;;;9.00;4.70;;;;;;;;;;5036179;28;20428;-82
2021/12/01 13:06:07;;;;;;;11.88;7.60;;;;;;;;;;5036721;28;20044;-83
2021/12/01 13:08:44;;;;;;;10.07;6.68;;;;;;;;;;5036297;28;20368;-80
2021/12/01 13:11:12;;;;;;;10.02;7.50;;;;;;;;;;5036436;28;20029;-82
2021/12/01 13:13:44;;;;;;;13.65;8.57;;;;;;;;;;5036111;28;20097;-82
2021/12/01 13:16:12;;;;;;;15.90;9.32;;;;;;;;;;5036100;28;20036;-81
2021/12/01 13:18:44;;;;;;;11.65;6.25;;;;;;;;;;5036208;28;20480;-81
2021/12/01 13:21:12;;;;;;;18.20;7.35;;;;;;;;;;5036953;28;20559;-83
2021/12/01 13:23:48;;;;;;;126.45;74.05;;;;;;;;;;5035305;28;20021;-82
2021/12/01 13:26:14;;;;;;;46.67;23.65;;;;;;;;;;5036789;28;20041;-82
2021/12/01 13:28:55;;;;;;;51.33;29.05;;;;;;;;;;5036144;28;20029;-83
2021/12/01 13:31:23;;;;;;;12.93;7.40;;;;;;;;;;5036199;28;20035;-82
2021/12/01 13:34:12;;;;;;;15.63;7.85;;;;;;;;;;5036137;28;20021;-84
2021/12/01 13:36:43;;;;;;;38.20;21.05;;;;;;;;;;5036092;28;20033;-84
2021/12/01 13:39:21;;;;;;;17.65;10.27;;;;;;;;;;5035151;28;20037;-82
2021/12/01 13:41:56;;;;;;;10.32;6.40;;;;;;;;;;5033297;28;20114;-83
2021/12/01 13:44:42;;;;;;;12.60;5.50;;;;;;;;;;5035809;28;20044;-83
2021/12/01 13:47:21;;;;;;;8.20;4.95;;;;;;;;;;5035198;28;20431;-82
2021/12/01 13:51:46;;;;;;;18.13;9.93;;;;;;;;;;5148716;27;20369;-83
2021/12/01 13:54:32;;;;;;;28.67;16.13;;;;;;;;;;5067377;28;97541;-83
